Time;durP1;ratioP1;P1;durP2;ratioP2;P2;SDS_P1;SDS_P2;PMS_P1;PMS_P2;Temp;Humidity;BMP_temperature;BMP_pressure;BME280_temperature;BME280_humidity;BME280_pressure;Samples;Min_cycle;Max_cycle;Signal;HPM_P1;HPM_P2
2022/12/07 00:01:39;;;;;;;1.63;0.10;;;;;;;2.24;53.09;101386.66;5041630;28;20465;-66
2022/12/07 00:04:06;;;;;;;1.85;0.47;;;;;;;2.22;53.13;101385.78;5041920;28;20495;-70
2022/12/07 00:06:43;;;;;;;0.30;0.10;;;;;;;2.16;53.49;101380.59;5026630;28;20048;-70
2022/12/07 00:09:14;;;;;;;0.95;0.38;;;;;;;1.85;53.56;101383.06;5026397;28;20275;-67
2022/12/07 00:11:39;;;;;;;1.33;0.10;;;;;;;2.12;52.92;101371.97;5025986;28;20564;-66
2022/12/07 00:14:10;;;;;;;2.55;0.05;;;;;;;2.12;53.32;101373.72;5031841;28;20025;-65
2022/12/07 00:16:36;;;;;;;5.60;0.45;;;;;;;1.97;53.53;101376.22;5028448;28;20406;-67
2022/12/07 00:19:03;;;;;;;3.92;0.10;;;;;;;2.13;53.28;101371.16;5035342;28;20052;-67
2022/12/07 00:21:31;;;;;;;3.72;0.10;;;;;;;2.11;53.20;101377.16;5026096;28;20563;-68
2022/12/07 00:23:57;;;;;;;3.63;0.17;;;;;;;2.17;53.97;101377.16;5033215;28;20649;-69
2022/12/07 00:26:32;;;;;;;1.95;0.13;;;;;;;2.18;53.82;101360.00;5025463;28;20025;-68
2022/12/07 00:29:03;;;;;;;5.28;0.20;;;;;;;2.30;53.40;101360.84;5026097;28;20136;-68
2022/12/07 00:31:33;;;;;;;2.08;0.10;;;;;;;2.30;54.03;101362.59;5040467;28;20052;-68
2022/12/07 00:33:59;;;;;;;3.97;0.30;;;;;;;2.29;54.38;101373.78;5012094;28;20127;-66
2022/12/07 00:36:25;;;;;;;2.20;0.20;;;;;;;2.22;54.14;101367.72;5033749;28;20498;-69
2022/12/07 00:38:51;;;;;;;3.80;0.05;;;;;;;2.21;54.82;101355.69;5027588;28;20573;-69
2022/12/07 00:41:19;;;;;;;3.13;0.00;;;;;;;2.53;53.79;101354.88;5026823;28;20068;-67
2022/12/07 00:43:46;;;;;;;1.95;0.43;;;;;;;2.30;54.17;101349.69;5025723;28;20044;-67
2022/12/07 00:46:13;;;;;;;0.77;0.10;;;;;;;2.45;53.27;101349.72;5029200;28;20029;-67
2022/12/07 00:48:38;;;;;;;0.45;0.05;;;;;;;2.34;53.73;101336.78;5039784;28;20037;-67
2022/12/07 00:51:05;;;;;;;1.40;0.00;;;;;;;2.27;53.57;101347.97;5027186;28;20576;-66
2022/12/07 00:53:33;;;;;;;2.72;0.60;;;;;;;2.14;53.13;101343.63;5025047;28;20120;-65
2022/12/07 00:56:04;;;;;;;1.90;0.10;;;;;;;2.01;53.72;101347.03;5026908;28;20478;-64
2022/12/07 00:58:30;;;;;;;3.35;0.10;;;;;;;1.88;53.49;101344.41;5030606;28;20045;-64
2022/12/07 01:00:59;;;;;;;0.93;0.03;;;;;;;1.81;54.70;101347.81;5030369;28;20098;-65
2022/12/07 01:03:25;;;;;;;2.03;0.10;;;;;;;1.83;54.77;101348.69;5027438;28;20113;-67
2022/12/07 01:05:54;;;;;;;2.53;0.00;;;;;;;1.90;54.76;101349.56;5028463;28;20033;-67
2022/12/07 01:08:20;;;;;;;2.88;0.10;;;;;;;1.97;54.73;101346.16;5034638;28;20184;-67
2022/12/07 01:10:47;;;;;;;1.27;0.00;;;;;;;1.99;54.76;101351.31;5028979;28;20525;-67
2022/12/07 01:13:12;;;;;;;7.25;0.50;;;;;;;1.81;55.39;101345.22;5027020;28;20029;-66
2022/12/07 01:15:42;;;;;;;9.07;0.25;;;;;;;1.89;55.30;101351.28;5043895;28;20764;-66
2022/12/07 01:18:08;;;;;;;1.77;0.05;;;;;;;2.01;55.65;101352.19;5029122;28;20407;-66
2022/12/07 01:20:35;;;;;;;3.20;0.13;;;;;;;2.04;56.18;101352.19;5031748;28;21989;-67
2022/12/07 01:23:00;;;;;;;1.27;0.10;;;;;;;1.80;57.09;101352.97;5027519;28;20123;-67
2022/12/07 01:25:26;;;;;;;0.75;0.10;;;;;;;2.31;55.70;101341.97;5029479;28;20454;-66
2022/12/07 01:27:51;;;;;;;2.28;0.10;;;;;;;2.25;55.95;101349.69;5030701;28;20455;-66
2022/12/07 01:30:17;;;;;;;3.65;0.20;;;;;;;2.21;55.90;101345.38;5027298;28;20055;-67
2022/12/07 01:32:42;;;;;;;2.35;0.20;;;;;;;1.94;56.04;101343.56;5028815;28;20043;-67
2022/12/07 01:35:08;;;;;;;1.38;0.05;;;;;;;2.13;54.87;101347.06;5029840;28;20521;-69
2022/12/07 01:37:35;;;;;;;2.17;0.35;;;;;;;2.25;54.51;101341.94;5027457;28;20565;-68
2022/12/07 01:40:01;;;;;;;0.90;0.10;;;;;;;2.23;54.14;101343.66;5032467;28;20486;-67
2022/12/07 01:42:28;;;;;;;4.38;0.20;;;;;;;2.09;54.41;101337.59;5028736;28;20048;-67
2022/12/07 01:45:18;;;;;;;2.10;0.10;;;;;;;2.09;54.57;101345.34;5031159;28;20709;-67
2022/12/07 01:47:50;;;;;;;2.83;0.20;;;;;;;2.10;54.22;101339.31;5030905;28;20407;-66
2022/12/07 01:50:16;;;;;;;3.10;0.22;;;;;;;2.07;54.22;101347.06;5029928;28;20029;-67
2022/12/07 01:52:44;;;;;;;3.95;0.20;;;;;;;2.00;54.03;101348.75;5035549;28;20047;-67
2022/12/07 01:55:12;;;;;;;3.13;0.05;;;;;;;1.92;53.62;101348.72;5027636;28;20029;-67
2022/12/07 01:57:41;;;;;;;4.63;0.10;;;;;;;1.86;54.01;101348.72;5027847;28;20040;-67
2022/12/07 02:00:09;;;;;;;1.83;0.35;;;;;;;1.75;54.38;101365.81;5028760;28;20048;-66
2022/12/07 02:02:59;;;;;;;5.75;0.65;;;;;;;1.95;54.24;101353.00;5025939;28;20083;-66
2022/12/07 02:05:26;;;;;;;2.80;0.10;;;;;;;1.96;54.44;101354.75;5026510;28;20045;-66
2022/12/07 02:07:54;;;;;;;5.43;0.35;;;;;;;2.02;54.33;101346.16;5043638;28;20107;-67
2022/12/07 02:10:23;;;;;;;0.95;0.20;;;;;;;2.02;54.41;101351.31;5025441;28;20033;-66
2022/12/07 02:12:55;;;;;;;3.10;0.40;;;;;;;2.00;54.63;101345.28;5026495;28;20041;-67
2022/12/07 02:15:24;;;;;;;2.55;0.20;;;;;;;2.08;54.31;101344.47;5028490;28;20474;-68
2022/12/07 02:17:56;;;;;;;2.45;0.10;;;;;;;2.07;54.31;101347.91;5025304;28;20060;-69
2022/12/07 02:20:33;;;;;;;0.85;0.10;;;;;;;2.06;54.30;101340.16;5027816;28;20123;-70
2022/12/07 02:23:04;;;;;;;3.25;1.08;;;;;;;2.07;54.39;101336.75;5043533;28;20501;-67
2022/12/07 02:25:39;;;;;;;1.17;0.05;;;;;;;2.08;54.47;101334.16;5042920;28;20083;-67
2022/12/07 02:28:06;;;;;;;3.45;0.13;;;;;;;2.04;54.72;101328.97;5026215;28;20569;-67
2022/12/07 02:30:40;;;;;;;3.30;0.20;;;;;;;2.09;54.67;101329.88;5035311;28;20029;-67
2022/12/07 02:33:16;;;;;;;2.65;0.15;;;;;;;2.07;54.56;101326.44;5028732;28;20049;-69
2022/12/07 02:35:49;;;;;;;1.38;0.68;;;;;;;2.24;54.22;101329.91;5027665;28;20095;-68
2022/12/07 02:38:15;;;;;;;4.07;0.30;;;;;;;2.16;54.09;101333.31;5019439;28;20724;-68
2022/12/07 02:40:52;;;;;;;4.68;0.10;;;;;;;1.55;56.13;101336.53;5026948;28;20091;-68
2022/12/07 02:43:33;;;;;;;1.70;0.10;;;;;;;1.89;55.20;101335.81;5028381;28;20421;-68
2022/12/07 02:46:07;;;;;;;1.20;0.20;;;;;;;1.73;55.47;101337.47;5041338;28;20099;-69
2022/12/07 02:48:33;;;;;;;4.85;0.40;;;;;;;2.24;54.23;101324.75;5016519;28;20038;-68
2022/12/07 02:50:59;;;;;;;4.47;0.10;;;;;;;2.21;54.05;101321.28;5025606;28;20608;-68
2022/12/07 02:53:36;;;;;;;6.25;0.28;;;;;;;2.31;53.20;101325.59;5028073;28;20124;-71
2022/12/07 02:56:40;;;;;;;2.28;0.28;;;;;;;2.21;53.46;101324.72;5026942;28;20425;-69
2022/12/07 02:59:36;;;;;;;0.85;0.30;;;;;;;2.14;53.68;101330.72;5001246;28;20037;-69
2022/12/07 03:02:33;;;;;;;0.85;0.30;;;;;;;2.09;53.06;101323.00;5028070;28;20497;-69
2022/12/07 03:05:40;;;;;;;3.63;0.20;;;;;;;1.94;53.22;101320.38;5027022;28;20040;-69
2022/12/07 03:08:17;;;;;;;0.20;0.00;;;;;;;1.94;53.19;101328.94;5029837;28;20044;-69
2022/12/07 03:10:56;;;;;;;3.05;0.10;;;;;;;1.89;53.03;101322.94;5023958;28;20204;-69
2022/12/07 03:13:33;;;;;;;0.30;0.10;;;;;;;1.79;53.30;101322.88;5030760;28;20652;-69
2022/12/07 03:16:05;;;;;;;2.75;0.00;;;;;;;1.70;53.27;101319.41;5034031;28;20061;-68
2022/12/07 03:18:39;;;;;;;3.25;0.00;;;;;;;1.61;53.63;101316.78;5027622;28;20514;-68
2022/12/07 03:21:11;;;;;;;0.47;0.10;;;;;;;1.85;52.97;101323.78;5024300;28;20486;-67
2022/12/07 03:23:39;;;;;;;0.65;0.05;;;;;;;1.90;53.03;101340.09;5013907;28;20041;-67
2022/12/07 03:26:11;;;;;;;1.65;0.00;;;;;;;1.78;53.62;101336.66;5026526;28;20032;-69
2022/12/07 03:28:45;;;;;;;0.40;0.00;;;;;;;1.81;53.55;101331.50;5024309;28;20037;-70
2022/12/07 03:31:25;;;;;;;0.85;0.10;;;;;;;2.08;53.10;101328.13;5025269;28;20367;-70
2022/12/07 03:34:34;;;;;;;0.63;0.00;;;;;;;2.14;52.82;101330.72;5028609;28;20040;-70
2022/12/07 03:37:12;;;;;;;8.65;0.15;;;;;;;1.97;53.79;101329.81;5034111;28;20047;-71
2022/12/07 03:40:11;;;;;;;4.07;0.00;;;;;;;2.09;53.24;101325.56;5040519;28;20062;-70
2022/12/07 03:42:37;;;;;;;1.38;0.00;;;;;;;2.05;53.68;101317.81;5009443;28;20038;-70
2022/12/07 03:45:03;;;;;;;1.80;0.73;;;;;;;2.04;53.76;101316.09;5026611;28;20049;-71
2022/12/07 03:47:42;;;;;;;0.75;0.00;;;;;;;1.96;53.89;101320.38;5024252;28;20132;-71
2022/12/07 03:50:23;;;;;;;2.75;0.10;;;;;;;1.70;54.27;101326.28;5024929;28;20116;-71
2022/12/07 03:53:04;;;;;;;0.80;0.00;;;;;;;1.89;53.94;101317.78;5032935;28;20056;-70
2022/12/07 03:55:34;;;;;;;1.35;0.00;;;;;;;1.93;53.86;101326.41;5026046;28;20029;-69
2022/12/07 03:58:05;;;;;;;4.57;0.00;;;;;;;1.95;53.70;101319.50;5025848;28;20060;-73
2022/12/07 04:00:31;;;;;;;2.65;0.00;;;;;;;1.94;53.92;101321.22;5027173;28;20126;-74
2022/12/07 04:02:56;;;;;;;3.95;0.40;;;;;;;1.79;54.55;101321.16;5027675;28;20287;-74
2022/12/07 04:05:22;;;;;;;2.03;0.10;;;;;;;2.09;54.00;101319.56;5027273;28;20041;-74
2022/12/07 04:07:47;;;;;;;7.40;0.10;;;;;;;2.07;54.40;101323.84;5026682;28;20534;-74
2022/12/07 04:10:13;;;;;;;0.85;0.10;;;;;;;1.93;54.58;101323.81;5031955;28;20059;-67
2022/12/07 04:12:39;;;;;;;1.77;0.00;;;;;;;1.97;54.89;101322.94;5026766;28;20540;-68
2022/12/07 04:15:06;;;;;;;2.22;0.10;;;;;;;2.09;53.96;101329.88;5027339;28;20041;-67
2022/12/07 04:17:31;;;;;;;4.88;0.65;;;;;;;2.00;54.43;101325.56;5033864;28;20051;-70
2022/12/07 04:19:57;;;;;;;0.93;0.00;;;;;;;2.13;53.95;101310.94;5027578;28;20283;-70
2022/12/07 04:22:22;;;;;;;0.63;0.50;;;;;;;2.11;53.81;101312.69;5025785;28;20041;-70
2022/12/07 04:24:48;;;;;;;5.88;0.10;;;;;;;2.24;53.21;101308.41;5025943;28;20029;-70
2022/12/07 04:27:13;;;;;;;4.53;0.10;;;;;;;2.23;52.86;101304.97;5024448;28;20394;-70
2022/12/07 04:29:39;;;;;;;0.65;0.00;;;;;;;2.07;53.54;101303.22;5023759;28;20117;-69
2022/12/07 04:32:04;;;;;;;7.22;0.40;;;;;;;2.01;53.25;101316.09;5028305;28;20045;-70
2022/12/07 04:34:30;;;;;;;0.60;0.05;;;;;;;2.03;53.15;101325.53;5031074;28;20474;-70
2022/12/07 04:36:55;;;;;;;1.65;0.00;;;;;;;1.93;53.68;101322.09;5029391;28;20079;-70
2022/12/07 04:39:22;;;;;;;2.92;0.28;;;;;;;2.05;53.45;101323.84;5029342;28;20139;-71
2022/12/07 04:41:49;;;;;;;3.40;0.00;;;;;;;2.11;53.62;101320.44;5027988;28;20029;-71
2022/12/07 04:44:15;;;;;;;2.50;0.10;;;;;;;1.91;54.28;101316.06;5029537;28;20494;-69
2022/12/07 04:46:41;;;;;;;5.00;0.15;;;;;;;1.87;54.49;101318.63;5028488;28;20454;-69
2022/12/07 04:49:07;;;;;;;1.08;0.00;;;;;;;1.92;53.74;101307.47;5031061;28;20048;-69
2022/12/07 04:51:32;;;;;;;5.25;0.20;;;;;;;1.83;54.21;101304.84;5029402;28;20475;-70
2022/12/07 04:53:58;;;;;;;4.75;0.15;;;;;;;1.87;53.93;101309.19;5036553;28;20410;-70
2022/12/07 04:56:24;;;;;;;0.90;0.60;;;;;;;1.84;54.10;101301.44;5030179;28;20105;-68
2022/12/07 04:58:52;;;;;;;1.10;0.20;;;;;;;1.80;54.63;101299.72;5028845;28;20140;-69
2022/12/07 05:01:18;;;;;;;1.33;0.20;;;;;;;1.87;54.31;101304.03;5029752;28;20112;-69
2022/12/07 05:03:43;;;;;;;7.00;0.20;;;;;;;1.85;54.66;101299.72;5028728;28;20175;-70
2022/12/07 05:06:10;;;;;;;7.72;0.50;;;;;;;1.75;55.17;101301.38;5032231;28;20127;-69
2022/12/07 05:08:36;;;;;;;1.80;0.10;;;;;;;1.88;54.25;101305.72;5014704;28;20053;-69
2022/12/07 05:11:03;;;;;;;1.63;0.10;;;;;;;1.85;54.65;101303.16;5028095;28;20047;-70
2022/12/07 05:13:29;;;;;;;6.13;0.20;;;;;;;1.85;54.54;101300.56;5034940;28;20318;-70
2022/12/07 05:15:54;;;;;;;2.47;0.40;;;;;;;1.86;54.67;101284.28;5028296;28;20257;-69
2022/12/07 05:18:20;;;;;;;8.80;0.95;;;;;;;1.69;55.10;101289.34;5030636;28;20049;-70
2022/12/07 05:20:45;;;;;;;1.73;0.20;;;;;;;1.69;55.40;101288.50;5027214;28;20485;-69
2022/12/07 05:23:11;;;;;;;4.57;0.75;;;;;;;1.78;55.16;101287.69;5029292;28;20041;-68
2022/12/07 05:25:37;;;;;;;3.25;0.30;;;;;;;1.84;55.52;101288.56;5034334;28;20032;-69
2022/12/07 05:28:03;;;;;;;7.72;1.00;;;;;;;1.98;54.88;101285.16;5030316;28;20037;-69
2022/12/07 05:30:29;;;;;;;5.50;0.17;;;;;;;1.99;55.23;101305.75;5038375;28;20099;-75
2022/12/07 05:32:54;;;;;;;6.63;0.45;;;;;;;2.06;55.11;101286.00;5032362;28;20584;-75
2022/12/07 05:35:20;;;;;;;2.90;0.10;;;;;;;2.09;54.94;101292.06;5023026;28;20115;-69
2022/12/07 05:37:45;;;;;;;1.83;0.10;;;;;;;2.11;54.71;101303.22;5028381;28;20041;-70
2022/12/07 05:40:13;;;;;;;2.20;0.10;;;;;;;2.07;54.87;101322.13;5031129;28;20041;-69
2022/12/07 05:42:39;;;;;;;6.72;0.20;;;;;;;1.51;55.73;101322.78;5032396;28;20321;-70
2022/12/07 05:45:06;;;;;;;0.77;0.57;;;;;;;1.31;56.73;101320.06;5009924;28;20069;-71
2022/12/07 05:47:31;;;;;;;10.15;0.55;;;;;;;1.26;56.52;101312.31;5008066;28;20044;-70
2022/12/07 05:49:57;;;;;;;1.92;0.10;;;;;;;1.26;56.54;101307.16;5011610;28;20042;-70
2022/12/07 05:52:22;;;;;;;0.40;0.20;;;;;;;1.35;56.29;101301.22;5006822;28;20056;-70
2022/12/07 05:54:48;;;;;;;2.28;0.20;;;;;;;1.64;55.49;101291.06;5007116;28;20137;-69
2022/12/07 05:57:14;;;;;;;3.05;0.45;;;;;;;1.65;55.55;101286.75;5008741;28;20505;-69
2022/12/07 05:59:39;;;;;;;1.02;0.00;;;;;;;1.54;55.60;101283.28;5006651;28;20051;-68
2022/12/07 06:02:10;;;;;;;4.13;0.30;;;;;;;1.78;54.06;101278.22;5003377;28;20306;-69
2022/12/07 06:04:38;;;;;;;6.68;0.15;;;;;;;1.71;53.74;101282.50;5004453;28;20397;-68
2022/12/07 06:07:04;;;;;;;4.28;0.10;;;;;;;1.60;53.60;101293.63;5006912;28;20385;-69
2022/12/07 06:09:31;;;;;;;2.88;0.20;;;;;;;1.46;53.68;101283.22;4991874;28;20061;-69
2022/12/07 06:14:41;;;;;;;3.25;0.10;;;;;;;1.33;54.12;101279.72;5009033;28;20044;-69
2022/12/07 06:17:07;;;;;;;2.42;0.35;;;;;;;1.37;53.67;101281.44;5015682;28;20650;-69
2022/12/07 06:19:33;;;;;;;0.93;0.10;;;;;;;1.27;54.00;101288.28;5006133;28;20355;-72
2022/12/07 06:21:58;;;;;;;1.35;0.75;;;;;;;1.22;53.79;101296.84;5006659;28;20065;-68
2022/12/07 06:24:24;;;;;;;6.20;0.13;;;;;;;1.13;53.69;101278.75;5007687;28;20033;-69
2022/12/07 06:26:49;;;;;;;2.40;0.20;;;;;;;1.15;54.14;101287.34;5009382;28;20045;-69
2022/12/07 06:29:18;;;;;;;1.55;0.13;;;;;;;1.08;54.63;101279.59;5005968;28;20033;-69
2022/12/07 06:31:44;;;;;;;3.92;0.47;;;;;;;1.13;54.26;101286.47;5020961;28;20037;-73
2022/12/07 06:34:13;;;;;;;1.35;0.17;;;;;;;1.17;54.60;101277.91;5008959;28;20113;-75
2022/12/07 06:36:39;;;;;;;0.93;0.00;;;;;;;1.23;54.14;101281.38;5004915;28;20185;-69
2022/12/07 06:39:05;;;;;;;2.92;0.10;;;;;;;1.21;54.41;101287.38;5009409;28;20133;-68
2022/12/07 06:41:31;;;;;;;6.40;0.10;;;;;;;1.13;54.58;101284.78;5015506;28;20048;-68
2022/12/07 06:43:56;;;;;;;0.85;0.20;;;;;;;1.10;55.21;101288.19;5005623;28;20520;-68
2022/12/07 06:46:23;;;;;;;1.60;0.55;;;;;;;0.97;55.62;101288.97;4992836;28;20128;-69
2022/12/07 06:48:48;;;;;;;3.05;0.50;;;;;;;1.01;55.54;101290.69;5006329;28;20122;-68
2022/12/07 06:51:14;;;;;;;0.40;0.08;;;;;;;0.84;56.40;101294.88;5007262;28;20081;-72
2022/12/07 06:53:39;;;;;;;7.50;0.10;;;;;;;1.19;55.58;101286.50;5009622;28;20756;-73
2022/12/07 06:56:05;;;;;;;0.75;0.10;;;;;;;1.17;55.17;101290.78;5009472;28;20049;-73
2022/12/07 06:58:31;;;;;;;9.65;0.60;;;;;;;1.46;53.77;101291.84;5006868;28;20033;-73
2022/12/07 07:00:56;;;;;;;5.50;0.10;;;;;;;1.35;53.82;101283.19;5008478;28;20128;-67
2022/12/07 07:03:22;;;;;;;2.90;0.13;;;;;;;1.32;53.41;101283.16;5007279;28;20045;-67
2022/12/07 07:05:48;;;;;;;3.67;0.10;;;;;;;1.37;52.92;101286.59;5005760;28;20121;-68
2022/12/07 07:08:14;;;;;;;1.42;0.43;;;;;;;1.31;52.97;101284.00;5007089;28;20515;-68
2022/12/07 07:10:39;;;;;;;5.65;0.10;;;;;;;1.43;52.14;101291.81;5006403;28;20037;-67
2022/12/07 07:13:05;;;;;;;5.25;0.00;;;;;;;1.41;51.91;101293.53;5008786;28;20109;-67
2022/12/07 07:15:32;;;;;;;2.15;0.10;;;;;;;1.35;52.66;101298.63;5007797;28;20036;-69
2022/12/07 07:17:57;;;;;;;2.22;0.10;;;;;;;1.24;53.02;101301.16;5007383;28;20037;-67
2022/12/07 07:20:23;;;;;;;3.13;0.17;;;;;;;1.48;52.19;101295.28;5005711;28;20084;-66
2022/12/07 07:22:49;;;;;;;2.00;0.10;;;;;;;1.50;52.63;101293.56;5004731;28;20500;-68
2022/12/07 07:25:15;;;;;;;5.38;0.20;;;;;;;1.56;52.68;101297.88;5006762;28;20034;-63
2022/12/07 07:27:40;;;;;;;0.20;0.03;;;;;;;1.55;53.05;101301.34;5014629;28;20256;-66
2022/12/07 07:30:09;;;;;;;4.68;0.30;;;;;;;1.64;53.02;101290.19;5011724;28;20033;-66
2022/12/07 07:32:34;;;;;;;0.77;0.08;;;;;;;1.56;52.53;101291.88;5025454;28;20045;-66
2022/12/07 07:35:00;;;;;;;1.23;0.10;;;;;;;1.55;53.01;101308.19;5030524;28;20037;-65
2022/12/07 07:37:26;;;;;;;2.60;0.10;;;;;;;1.57;52.38;101299.59;5024613;28;20148;-67
2022/12/07 07:39:51;;;;;;;1.42;0.10;;;;;;;1.51;52.72;101297.88;5026365;28;20037;-67
2022/12/07 07:42:17;;;;;;;0.63;0.00;;;;;;;1.47;52.92;101303.88;5024255;28;20034;-67
2022/12/07 07:44:43;;;;;;;3.70;0.30;;;;;;;1.41;53.37;101324.44;5025355;28;20406;-66
2022/12/07 07:47:08;;;;;;;4.95;0.85;;;;;;;1.44;53.71;101318.44;5025187;28;20044;-65
2022/12/07 07:49:34;;;;;;;2.08;0.17;;;;;;;1.57;53.32;101321.94;5016085;28;20116;-64
2022/12/07 07:51:59;;;;;;;3.03;0.20;;;;;;;1.51;53.37;101321.06;5024624;28;20561;-70
2022/12/07 07:54:24;;;;;;;1.60;0.20;;;;;;;1.47;53.07;101319.31;5026934;28;20029;-71
2022/12/07 07:56:50;;;;;;;5.00;0.20;;;;;;;1.30;53.35;101308.91;5009014;28;20079;-71
2022/12/07 07:59:16;;;;;;;1.95;0.20;;;;;;;1.22;52.96;101318.28;5009643;28;20068;-71
2022/12/07 08:01:41;;;;;;;6.30;0.30;;;;;;;1.14;53.70;101313.94;5015815;28;20029;-73
2022/12/07 08:04:07;;;;;;;1.10;0.20;;;;;;;1.04;54.09;101310.47;5041108;28;20024;-72
2022/12/07 08:06:32;;;;;;;4.03;0.30;;;;;;;1.07;54.55;101313.91;5027710;28;20399;-72
2022/12/07 08:08:58;;;;;;;1.65;0.35;;;;;;;1.13;54.90;101301.91;5027395;28;20120;-72
2022/12/07 08:11:24;;;;;;;2.70;0.30;;;;;;;1.42;54.44;101317.59;5024446;28;20390;-68
2022/12/07 08:13:49;;;;;;;5.25;1.10;;;;;;;1.60;54.32;101311.66;5025065;28;20045;-65
2022/12/07 08:16:16;;;;;;;10.38;2.33;;;;;;;1.76;54.10;101313.44;5010412;28;20443;-66
2022/12/07 08:18:42;;;;;;;10.40;4.72;;;;;;;1.84;54.45;101310.88;5026777;28;20032;-67
2022/12/07 08:21:11;;;;;;;3.88;2.13;;;;;;;2.22;53.79;101311.00;5034807;28;20037;-67
2022/12/07 08:23:37;;;;;;;7.40;1.70;;;;;;;2.21;53.40;101314.41;5025504;28;20072;-67
2022/12/07 08:26:09;;;;;;;6.95;1.02;;;;;;;2.34;53.19;101328.19;5025689;28;20441;-66
2022/12/07 08:28:36;;;;;;;2.35;0.30;;;;;;;2.22;52.65;101326.47;5023076;28;20508;-67
2022/12/07 08:31:13;;;;;;;4.13;1.00;;;;;;;2.07;53.24;101316.13;5025139;28;20061;-66
2022/12/07 08:33:40;;;;;;;2.50;0.22;;;;;;;1.73;53.84;101316.00;5032257;28;20059;-67
2022/12/07 08:36:10;;;;;;;1.23;0.20;;;;;;;1.32;55.09;101319.19;5025754;28;20397;-67
2022/12/07 08:38:37;;;;;;;2.83;0.30;;;;;;;1.67;54.60;101313.41;5023548;28;20046;-67
2022/12/07 08:41:03;;;;;;;2.40;0.15;;;;;;;1.43;54.65;101307.28;5028078;28;20720;-67
2022/12/07 08:43:29;;;;;;;8.77;0.98;;;;;;;1.65;54.39;101310.81;5024850;28;20044;-67
2022/12/07 08:46:13;;;;;;;6.90;1.23;;;;;;;1.85;54.28;101310.88;5024675;28;20076;-67
2022/12/07 08:48:44;;;;;;;4.43;0.30;;;;;;;1.96;54.24;101316.06;5020966;28;20227;-68
2022/12/07 08:51:10;;;;;;;3.63;0.40;;;;;;;2.02;53.67;101312.63;5036967;28;20049;-67
2022/12/07 08:53:38;;;;;;;6.13;1.17;;;;;;;2.18;53.71;101319.56;5036373;28;20419;-67
2022/12/07 08:56:04;;;;;;;4.82;0.70;;;;;;;2.28;53.35;101317.88;5024491;28;20124;-67
2022/12/07 08:58:30;;;;;;;17.02;1.17;;;;;;;2.33;53.50;101309.28;5022147;28;20083;-67
2022/12/07 09:00:55;;;;;;;7.43;0.28;;;;;;;2.35;53.23;101317.88;5005958;28;20429;-67
2022/12/07 09:03:20;;;;;;;5.70;0.35;;;;;;;2.26;53.02;101309.25;5020704;28;20034;-68
2022/12/07 09:05:46;;;;;;;5.72;0.40;;;;;;;2.26;53.04;101306.69;5020836;28;20529;-68
2022/12/07 09:08:12;;;;;;;3.47;0.60;;;;;;;2.40;52.57;101310.16;5022294;28;20207;-67
2022/12/07 09:10:37;;;;;;;2.50;0.50;;;;;;;2.51;52.42;101312.72;5020416;28;20166;-67
2022/12/07 09:13:03;;;;;;;4.35;0.88;;;;;;;2.67;52.79;101309.31;5020927;28;20353;-67
2022/12/07 09:15:29;;;;;;;5.30;1.38;;;;;;;2.96;52.55;101308.44;5022497;28;20053;-67
2022/12/07 09:17:55;;;;;;;1.75;0.30;;;;;;;3.21;52.32;101321.28;5033860;28;20510;-70
2022/12/07 09:20:20;;;;;;;1.77;0.22;;;;;;;3.22;51.55;101323.00;5026917;28;20071;-70
2022/12/07 09:22:46;;;;;;;2.30;0.17;;;;;;;3.24;51.65;101322.13;5024316;28;20648;-70
2022/12/07 09:25:11;;;;;;;2.80;0.15;;;;;;;3.38;50.94;101335.03;5027115;28;20462;-69
2022/12/07 09:27:37;;;;;;;5.75;0.10;;;;;;;3.10;50.99;101340.25;5023678;28;20037;-69
2022/12/07 09:30:04;;;;;;;0.55;0.28;;;;;;;2.99;51.18;101334.22;5040541;28;20033;-70
2022/12/07 09:32:31;;;;;;;0.20;0.08;;;;;;;2.22;52.68;101347.09;5025191;28;20057;-67
2022/12/07 09:34:57;;;;;;;4.10;0.10;;;;;;;2.07;52.90;101352.22;5023936;28;20029;-66
2022/12/07 09:37:22;;;;;;;2.78;0.10;;;;;;;1.81;53.68;101362.41;5024216;28;20037;-73
2022/12/07 09:39:48;;;;;;;3.55;0.10;;;;;;;1.44;54.03;101344.19;5027644;28;20044;-68
2022/12/07 09:42:36;;;;;;;5.47;0.10;;;;;;;1.21;53.51;101313.13;5032489;28;20037;-67
2022/12/07 09:45:05;;;;;;;0.08;0.00;;;;;;;2.15;51.92;101314.38;5033560;28;20045;-67
2022/12/07 09:47:33;;;;;;;1.02;0.10;;;;;;;2.35;51.04;101312.72;5007891;28;20049;-68
2022/12/07 09:50:14;;;;;;;0.17;0.00;;;;;;;2.79;50.24;101312.75;5025733;28;20033;-67
2022/12/07 09:52:41;;;;;;;2.00;0.17;;;;;;;2.88;49.90;101308.41;5025792;28;20041;-67
2022/12/07 09:55:19;;;;;;;1.95;0.20;;;;;;;3.07;49.93;101308.38;5041796;28;20097;-67
2022/12/07 09:57:44;;;;;;;0.35;0.13;;;;;;;3.30;49.77;101311.81;5022679;28;20619;-67
2022/12/07 10:00:16;;;;;;;1.75;0.05;;;;;;;3.38;49.71;101304.03;5026394;28;20835;-68
2022/12/07 10:03:02;;;;;;;1.10;0.00;;;;;;;3.39;49.16;101300.59;5024630;28;20113;-66
2022/12/07 10:05:36;;;;;;;2.42;0.30;;;;;;;3.14;49.27;101295.47;5022517;28;21034;-67
2022/12/07 10:08:03;;;;;;;6.35;0.22;;;;;;;2.93;49.04;101287.75;5023701;28;20040;-67
2022/12/07 10:10:34;;;;;;;4.30;0.10;;;;;;;2.62;48.89;101286.91;5023068;28;20032;-67
2022/12/07 10:13:08;;;;;;;3.30;0.38;;;;;;;2.69;49.50;101288.63;5031638;28;20255;-67
2022/12/07 10:15:46;;;;;;;1.85;0.20;;;;;;;3.06;49.26;101292.03;5024153;28;20359;-67
2022/12/07 10:18:25;;;;;;;1.98;0.20;;;;;;;2.95;49.67;101293.78;5032871;28;20143;-66
2022/12/07 10:21:02;;;;;;;5.55;0.10;;;;;;;3.26;49.13;101293.72;5031147;28;20033;-68
2022/12/07 10:23:27;;;;;;;2.08;0.10;;;;;;;3.06;49.39;101293.75;5026591;28;20353;-67
2022/12/07 10:25:54;;;;;;;4.68;0.30;;;;;;;3.14;49.63;101292.88;5025319;28;20114;-67
2022/12/07 10:28:21;;;;;;;8.70;0.88;;;;;;;3.40;49.24;101291.97;5028556;28;20052;-67
2022/12/07 10:30:51;;;;;;;7.88;1.15;;;;;;;3.33;49.15;101290.28;5038357;28;20052;-66
2022/12/07 10:33:38;;;;;;;5.22;0.10;;;;;;;3.53;49.52;101297.97;5025455;28;20041;-67
2022/12/07 10:36:38;;;;;;;3.92;0.30;;;;;;;3.61;49.74;101285.88;5027948;28;20063;-68
2022/12/07 10:39:14;;;;;;;6.57;0.10;;;;;;;3.48;49.78;101285.06;4993246;28;20044;-66
2022/12/07 10:42:02;;;;;;;3.78;0.20;;;;;;;3.57;50.15;101285.03;5022616;28;20040;-68
2022/12/07 10:44:29;;;;;;;5.90;0.10;;;;;;;3.70;49.72;101277.22;5030725;28;20032;-67
2022/12/07 10:47:03;;;;;;;0.77;0.15;;;;;;;3.25;50.52;101271.31;5024082;28;20042;-66
2022/12/07 10:49:55;;;;;;;2.00;0.35;;;;;;;3.53;50.13;101266.94;5023317;28;20033;-67
2022/12/07 10:52:38;;;;;;;2.33;0.30;;;;;;;3.67;50.38;101261.72;5032029;28;20408;-67
2022/12/07 10:55:09;;;;;;;1.33;0.10;;;;;;;3.46;50.58;101268.69;5006152;28;20566;-67
2022/12/07 10:57:41;;;;;;;3.97;0.35;;;;;;;3.52;50.60;101266.09;5003149;28;20092;-67
2022/12/07 11:00:22;;;;;;;8.50;0.43;;;;;;;3.53;50.84;101264.38;5020958;28;20565;-66
2022/12/07 11:02:50;;;;;;;5.88;0.40;;;;;;;4.04;49.95;101264.09;5003974;28;20407;-66
2022/12/07 11:05:32;;;;;;;2.45;0.20;;;;;;;4.01;49.50;101270.16;5003142;28;20029;-67
2022/12/07 11:08:23;;;;;;;4.85;0.20;;;;;;;3.61;49.94;101267.78;5012160;28;20046;-67
2022/12/07 11:11:17;;;;;;;0.90;0.43;;;;;;;4.24;49.52;101267.41;5005307;28;20036;-67
2022/12/07 11:14:01;;;;;;;4.32;0.17;;;;;;;4.63;49.49;101260.16;4985451;28;20050;-67
2022/12/07 11:16:59;;;;;;;6.00;0.15;;;;;;;4.47;48.83;101264.63;5021127;28;20354;-68
2022/12/07 11:19:50;;;;;;;4.38;0.30;;;;;;;4.62;49.32;101268.81;5036530;28;20107;-67
2022/12/07 11:22:23;;;;;;;3.53;0.20;;;;;;;4.81;48.05;101270.38;5005715;28;20092;-68
2022/12/07 11:24:53;;;;;;;1.23;0.22;;;;;;;4.90;47.45;101269.47;5005331;28;20079;-67
2022/12/07 11:27:22;;;;;;;4.20;0.10;;;;;;;5.00;47.24;101260.72;5018889;28;20087;-67
2022/12/07 11:29:59;;;;;;;3.70;0.30;;;;;;;4.56;47.88;101266.28;5004120;28;20037;-67
2022/12/07 11:32:52;;;;;;;1.90;0.28;;;;;;;4.54;46.72;101263.72;5003936;28;20056;-67
2022/12/07 11:35:36;;;;;;;5.85;0.15;;;;;;;4.57;46.41;101255.06;5007448;28;20129;-68
2022/12/07 11:38:11;;;;;;;1.05;0.10;;;;;;;4.02;46.63;101246.84;5005033;28;20377;-67
2022/12/07 11:40:40;;;;;;;7.13;0.65;;;;;;;4.17;46.91;101252.78;5004744;28;20039;-67
2022/12/07 11:43:25;;;;;;;3.50;0.10;;;;;;;4.51;45.39;101235.25;5022495;28;20045;-67
2022/12/07 11:46:00;;;;;;;5.75;0.17;;;;;;;4.53;45.34;101230.06;5028518;28;20066;-67
2022/12/07 11:48:35;;;;;;;1.25;0.10;;;;;;;4.63;45.16;101234.28;5024931;28;20045;-69
2022/12/07 11:51:04;;;;;;;3.03;0.10;;;;;;;4.58;44.67;101241.22;5027215;28;20089;-69